ZGGG

Guangzhou Baiyun International Airport

Airport
ICAO code
ZGGG
IATA Code
CAN
Summary
ICAO Region
APAC
ICAO Territory
Location

Guangzhou, Guangdong

Serving
Guangzhou
Elevation
50 ft
Coordinates
23° 23' 33" N , 113° 17' 56" E
KCC
Cwa
Metar
Observation
ZGGG 171000Z 09005MPS 9999 -SHRA FEW040TCU BKN040 29/25 Q1005 NOSIG
Station
Guangzhou
Date/Time
2022-08-17 10:00:00
Wind direction
90°
Lowest cloud amount
few clouds
Temperature
29°C
Dew point
25°C
Humidity
79%
QNH
1005 hPa
Weather condition
light showers rain

Guangzhou Baiyun International Airport is the main airport of Guangzhou, the capital of the province of Guangdong, People's Republic of China.

Climatology

Within the Köppen Climate Classification System, ((Koppen climate classification Cwa)) this climate type generally has warm and humid summers with mild winters. Its extent is from 30 to 50° of latitude mainly on the eastern and western borders of most continents. During the winter, the main weather feature is the mid-latitude cyclone. Convective thunderstorms provide precipitation in the summer months.

Airport map

Aerial View

SKYbrary Partners:

Safety knowledge contributed by: